Time;durP1;ratioP1;P1;durP2;ratioP2;P2;SDS_P1;SDS_P2;PMS_P1;PMS_P2;Temp;Humidity;BMP_temperature;BMP_pressure;BME280_temperature;BME280_humidity;BME280_pressure;Samples;Min_cycle;Max_cycle;Signal;HPM_P1;HPM_P2
2022/10/14 00:01:07;;;;;;;292.55;35.72;;;10.50;99.90;;;;;;5116710;27;20031;-65
2022/10/14 00:03:34;;;;;;;259.08;33.17;;;10.50;99.90;;;;;;5116741;27;20088;-65
2022/10/14 00:06:04;;;;;;;431.85;49.22;;;10.50;99.90;;;;;;5135066;27;20543;-65
2022/10/14 00:08:30;;;;;;;234.02;28.23;;;10.40;99.90;;;;;;5100009;27;20047;-66
2022/10/14 00:10:56;;;;;;;220.55;27.75;;;10.30;99.90;;;;;;5116502;27;20046;-66
2022/10/14 00:13:22;;;;;;;409.45;45.95;;;10.30;99.90;;;;;;5116563;27;20042;-66
2022/10/14 00:15:48;;;;;;;515.90;54.35;;;10.20;99.90;;;;;;5116377;27;20047;-66
2022/10/14 00:18:13;;;;;;;283.10;34.15;;;10.20;99.90;;;;;;5113991;27;20043;-66
2022/10/14 00:20:39;;;;;;;412.38;46.55;;;10.10;99.90;;;;;;5116379;27;20039;-66
2022/10/14 00:23:05;;;;;;;261.65;30.90;;;10.10;99.90;;;;;;5116347;27;20068;-66
2022/10/14 00:25:35;;;;;;;299.77;38.63;;;10.00;99.90;;;;;;5134593;27;20054;-66
2022/10/14 00:28:02;;;;;;;143.68;25.95;;;10.00;99.90;;;;;;5116542;27;20104;-66
2022/10/14 00:30:28;;;;;;;121.18;23.63;;;10.00;99.90;;;;;;5115987;27;20055;-65
2022/10/14 00:32:54;;;;;;;211.25;32.53;;;10.00;99.90;;;;;;5116217;27;20404;-66
2022/10/14 00:35:20;;;;;;;114.15;21.80;;;10.00;99.90;;;;;;5116108;27;20046;-66
2022/10/14 00:37:46;;;;;;;75.03;18.27;;;10.00;99.90;;;;;;5116061;27;20047;-66
2022/10/14 00:40:12;;;;;;;116.10;19.67;;;10.00;99.90;;;;;;5098963;27;20043;-66
2022/10/14 00:42:38;;;;;;;156.98;22.45;;;10.00;99.90;;;;;;5116017;27;20071;-66
2022/10/14 00:45:11;;;;;;;195.18;26.92;;;10.00;99.90;;;;;;5116180;27;20047;-66
2022/10/14 00:47:37;;;;;;;337.48;40.28;;;10.00;99.90;;;;;;5113475;27;20174;-66
2022/10/14 00:50:03;;;;;;;287.25;31.05;;;10.10;99.90;;;;;;5134225;27;20038;-66
2022/10/14 00:52:29;;;;;;;326.23;36.22;;;10.10;99.90;;;;;;5115994;27;20043;-67
2022/10/14 00:55:11;;;;;;;334.80;37.35;;;10.10;99.90;;;;;;5133965;27;20505;-67
2022/10/14 00:57:37;;;;;;;366.05;42.83;;;10.10;99.90;;;;;;5134262;27;20386;-66
2022/10/14 01:00:13;;;;;;;291.60;35.38;;;10.10;99.90;;;;;;5098429;27;20395;-67
2022/10/14 01:02:39;;;;;;;343.60;41.30;;;10.20;99.90;;;;;;5098566;27;20487;-66
2022/10/14 01:05:08;;;;;;;365.15;40.60;;;10.20;99.90;;;;;;5115754;27;20042;-67
2022/10/14 01:07:52;;;;;;;340.35;40.30;;;10.20;99.90;;;;;;5134124;27;20046;-67
2022/10/14 01:10:52;;;;;;;321.98;35.65;;;10.20;99.90;;;;;;5133933;27;20050;-66
2022/10/14 01:13:26;;;;;;;430.45;48.28;;;10.20;99.90;;;;;;5100618;27;20050;-67
2022/10/14 01:16:04;;;;;;;451.30;46.33;;;10.30;99.90;;;;;;5133859;27;20410;-67
2022/10/14 01:18:50;;;;;;;428.38;46.15;;;10.30;99.90;;;;;;5113202;27;20036;-67
2022/10/14 01:21:35;;;;;;;334.90;37.67;;;10.30;99.90;;;;;;5115333;27;20072;-66
2022/10/14 01:24:13;;;;;;;508.42;49.85;;;10.30;99.90;;;;;;5133463;27;20038;-67
2022/10/14 01:26:47;;;;;;;449.73;45.80;;;10.40;99.90;;;;;;5133724;27;20497;-67
2022/10/14 01:29:16;;;;;;;583.33;56.53;;;10.40;99.90;;;;;;5133415;27;20043;-67
2022/10/14 01:31:49;;;;;;;585.53;57.75;;;10.40;99.90;;;;;;5114973;27;20051;-67
2022/10/14 01:34:24;;;;;;;391.35;40.33;;;10.40;99.90;;;;;;5114814;27;20043;-67
2022/10/14 01:37:00;;;;;;;441.83;47.28;;;10.40;99.90;;;;;;5133558;27;20039;-67
2022/10/14 01:39:34;;;;;;;468.48;47.55;;;10.40;99.90;;;;;;5120685;27;20481;-68
2022/10/14 01:42:15;;;;;;;428.15;43.15;;;10.50;99.90;;;;;;5154063;27;20452;-68
2022/10/14 01:44:46;;;;;;;403.27;42.35;;;10.50;99.90;;;;;;5135867;27;20039;-67
2022/10/14 01:47:17;;;;;;;344.35;35.22;;;10.50;99.90;;;;;;5154116;27;20047;-67
2022/10/14 01:49:53;;;;;;;459.77;44.10;;;10.50;99.90;;;;;;5151450;27;20038;-67
2022/10/14 01:52:26;;;;;;;571.13;54.78;;;10.50;99.90;;;;;;5135235;27;20049;-67
2022/10/14 01:54:56;;;;;;;497.80;49.70;;;10.50;99.90;;;;;;5135222;27;20038;-67
2022/10/14 01:57:28;;;;;;;553.37;49.20;;;10.60;99.90;;;;;;5118102;27;20038;-67
2022/10/14 01:59:55;;;;;;;412.27;40.88;;;10.60;99.90;;;;;;5153851;27;20035;-67
2022/10/14 02:02:23;;;;;;;436.35;45.22;;;10.60;99.90;;;;;;5153805;27;20391;-68
2022/10/14 02:04:49;;;;;;;511.17;52.22;;;10.60;99.90;;;;;;5135087;27;20046;-68
2022/10/14 02:07:33;;;;;;;433.98;47.17;;;10.60;99.90;;;;;;5117986;27;20042;-67
2022/10/14 02:10:31;;;;;;;400.80;43.25;;;10.70;99.90;;;;;;5135067;27;20047;-68
2022/10/14 02:13:06;;;;;;;482.70;49.05;;;10.70;99.90;;;;;;5117206;27;20057;-67
2022/10/14 02:15:56;;;;;;;440.15;48.08;;;10.70;99.90;;;;;;5134969;27;20084;-68
2022/10/14 02:18:31;;;;;;;;;;;10.70;99.90;;;;;;5151487;27;20045;-68
2022/10/14 02:21:28;;;;;;;395.98;42.20;;;10.70;99.90;;;;;;5134959;27;20433;-68
2022/10/14 02:24:05;;;;;;;437.25;42.22;;;10.60;99.90;;;;;;5153817;27;20066;-68
2022/10/14 02:26:33;;;;;;;377.30;38.35;;;10.60;99.90;;;;;;5134842;27;20039;-68
2022/10/14 02:29:01;;;;;;;382.17;37.25;;;10.60;99.90;;;;;;5153526;27;20443;-67
2022/10/14 02:31:29;;;;;;;322.23;33.38;;;10.50;99.90;;;;;;5134897;27;20049;-67
2022/10/14 02:33:59;;;;;;;446.95;44.97;;;10.50;99.90;;;;;;5153746;27;20039;-67
2022/10/14 02:36:27;;;;;;;482.30;43.70;;;10.40;99.90;;;;;;5153466;27;20083;-67
2022/10/14 02:38:56;;;;;;;370.48;38.95;;;10.40;99.90;;;;;;5134850;27;20490;-67
2022/10/14 02:41:26;;;;;;;310.48;33.63;;;10.40;99.90;;;;;;5134867;27;20053;-67
2022/10/14 02:43:52;;;;;;;338.17;37.40;;;10.40;99.90;;;;;;5153500;27;20156;-68
2022/10/14 02:46:21;;;;;;;429.00;44.97;;;10.40;99.90;;;;;;5134748;27;20351;-68
2022/10/14 02:48:48;;;;;;;412.63;42.27;;;10.40;99.90;;;;;;5132521;27;20072;-68
2022/10/14 02:51:15;;;;;;;411.95;46.22;;;10.40;99.90;;;;;;5134966;27;20276;-68
2022/10/14 02:53:40;;;;;;;384.92;41.85;;;10.30;99.90;;;;;;5117441;27;20066;-68
2022/10/14 02:56:07;;;;;;;386.27;43.60;;;10.30;99.90;;;;;;5153082;27;20135;-67
2022/10/14 02:58:33;;;;;;;418.83;44.30;;;10.30;99.90;;;;;;5153329;27;20052;-67
2022/10/14 03:00:58;;;;;;;369.17;38.65;;;10.20;99.90;;;;;;5153276;27;20038;-67
2022/10/14 03:03:24;;;;;;;322.73;35.72;;;10.20;99.90;;;;;;5134540;27;20133;-68
2022/10/14 03:05:50;;;;;;;394.95;37.53;;;10.10;99.90;;;;;;5134575;27;20042;-68
2022/10/14 03:08:16;;;;;;;322.42;32.67;;;10.10;99.90;;;;;;5134734;27;20066;-68
2022/10/14 03:10:45;;;;;;;430.52;39.78;;;10.00;99.90;;;;;;5134776;27;20479;-68
2022/10/14 03:13:11;;;;;;;455.75;42.35;;;9.90;99.90;;;;;;5153200;27;20034;-67
2022/10/14 03:15:37;;;;;;;380.88;38.45;;;9.90;99.90;;;;;;5153452;27;20364;-68
2022/10/14 03:18:03;;;;;;;342.38;33.60;;;9.90;99.90;;;;;;5115170;27;20053;-68
2022/10/14 03:20:29;;;;;;;400.67;37.42;;;9.80;99.90;;;;;;5117269;27;20486;-68
2022/10/14 03:22:55;;;;;;;369.80;37.00;;;9.80;99.90;;;;;;5118919;27;20126;-68
2022/10/14 03:25:21;;;;;;;352.80;37.33;;;9.80;99.90;;;;;;5138364;27;20426;-68
2022/10/14 03:27:46;;;;;;;274.77;33.25;;;9.80;99.90;;;;;;5156537;27;20371;-68
2022/10/14 03:30:12;;;;;;;348.20;37.78;;;9.80;99.90;;;;;;5137844;27;20058;-68
2022/10/14 03:32:38;;;;;;;317.55;37.58;;;9.80;99.90;;;;;;5156482;27;20051;-68
2022/10/14 03:35:04;;;;;;;417.15;45.28;;;9.80;99.90;;;;;;5156355;27;20043;-68
2022/10/14 03:37:30;;;;;;;300.77;39.45;;;9.80;99.90;;;;;;5137795;27;20482;-68
2022/10/14 03:39:56;;;;;;;288.70;39.08;;;9.80;99.90;;;;;;5120673;27;20046;-68
2022/10/14 03:42:22;;;;;;;148.82;31.25;;;9.80;99.90;;;;;;5156482;27;20035;-67
2022/10/14 03:44:47;;;;;;;157.52;33.05;;;9.80;99.90;;;;;;5156190;27;20047;-68
2022/10/14 03:47:13;;;;;;;197.55;34.35;;;9.80;99.90;;;;;;5137602;27;20042;-68
2022/10/14 03:49:39;;;;;;;317.45;44.22;;;9.80;99.90;;;;;;5153710;27;20104;-68
2022/10/14 03:52:05;;;;;;;294.52;39.70;;;9.80;99.90;;;;;;5120308;27;20043;-68
2022/10/14 03:54:31;;;;;;;120.68;30.33;;;9.90;99.90;;;;;;5156225;27;20043;-68
2022/10/14 03:56:56;;;;;;;104.93;26.55;;;9.90;99.90;;;;;;5137509;27;20107;-68
2022/10/14 03:59:22;;;;;;;193.07;35.05;;;9.90;99.90;;;;;;5156128;27;20113;-68
2022/10/14 04:01:48;;;;;;;194.85;36.83;;;9.90;99.90;;;;;;5156025;27;20504;-69
2022/10/14 04:04:14;;;;;;;143.75;30.98;;;9.90;99.90;;;;;;5137294;27;20074;-69
2022/10/14 04:06:40;;;;;;;196.73;33.85;;;9.90;99.90;;;;;;5137292;27;20068;-68
2022/10/14 04:09:05;;;;;;;135.30;29.73;;;9.90;99.90;;;;;;5156032;27;20039;-68
2022/10/14 04:11:31;;;;;;;119.13;26.95;;;9.90;99.90;;;;;;5137230;27;20399;-68
2022/10/14 04:13:58;;;;;;;179.57;31.50;;;9.90;99.90;;;;;;5155619;27;20042;-68
2022/10/14 04:16:25;;;;;;;119.68;26.63;;;9.90;99.90;;;;;;5155659;27;20070;-68
2022/10/14 04:18:52;;;;;;;110.85;26.98;;;9.90;99.90;;;;;;5153323;27;20494;-68
2022/10/14 04:21:18;;;;;;;140.52;28.08;;;9.90;99.90;;;;;;5155499;27;20053;-68
2022/10/14 04:23:44;;;;;;;187.00;31.98;;;9.90;99.90;;;;;;5155763;27;20042;-68
2022/10/14 04:26:10;;;;;;;236.88;35.13;;;9.90;99.90;;;;;;5137234;27;20043;-68
2022/10/14 04:28:36;;;;;;;226.15;34.83;;;9.90;99.90;;;;;;5155738;27;20050;-68
2022/10/14 04:31:03;;;;;;;279.90;39.00;;;9.90;99.90;;;;;;5155543;27;20058;-69
2022/10/14 04:33:29;;;;;;;322.90;40.35;;;9.90;99.90;;;;;;5119288;27;20049;-68
2022/10/14 04:36:04;;;;;;;291.15;37.63;;;9.90;99.90;;;;;;5136037;27;20047;-68
2022/10/14 04:38:31;;;;;;;294.08;36.63;;;9.80;99.90;;;;;;5136741;27;20498;-68
2022/10/14 04:40:57;;;;;;;367.55;44.72;;;9.80;99.90;;;;;;5136926;27;20039;-68
2022/10/14 04:43:22;;;;;;;369.90;41.85;;;9.80;99.90;;;;;;5119686;27;20439;-68
2022/10/14 04:45:48;;;;;;;420.23;43.60;;;9.80;99.90;;;;;;5155048;27;20598;-69
2022/10/14 04:48:15;;;;;;;385.38;40.22;;;9.80;99.90;;;;;;5134090;27;20103;-69
2022/10/14 04:50:42;;;;;;;318.05;37.15;;;9.80;99.90;;;;;;5155048;27;20049;-69
2022/10/14 04:53:08;;;;;;;417.13;44.33;;;9.80;99.90;;;;;;5136366;27;20043;-68
2022/10/14 04:55:34;;;;;;;408.88;44.05;;;9.80;99.90;;;;;;5154927;27;20091;-68
2022/10/14 04:57:59;;;;;;;360.88;38.97;;;9.80;99.90;;;;;;5154919;27;20394;-68
2022/10/14 05:00:25;;;;;;;517.50;52.38;;;9.80;99.90;;;;;;5154834;27;20087;-68
2022/10/14 05:02:51;;;;;;;464.27;46.20;;;9.70;99.90;;;;;;5136412;27;20083;-69
2022/10/14 05:05:17;;;;;;;410.27;41.85;;;9.70;99.90;;;;;;5154663;27;20496;-68
2022/10/14 05:07:43;;;;;;;311.92;34.25;;;9.70;99.90;;;;;;5154891;27;20099;-68
2022/10/14 05:10:09;;;;;;;409.05;42.88;;;9.70;99.90;;;;;;5136359;27;20402;-68
2022/10/14 05:12:36;;;;;;;354.52;40.15;;;9.70;99.90;;;;;;5154610;27;20043;-68
2022/10/14 05:15:04;;;;;;;312.40;36.58;;;9.80;99.90;;;;;;5119041;27;20398;-68
2022/10/14 05:17:31;;;;;;;353.08;41.13;;;9.70;99.90;;;;;;5134873;27;20047;-68
2022/10/14 05:19:57;;;;;;;365.13;39.25;;;9.70;99.90;;;;;;5135086;27;20104;-68
2022/10/14 05:22:22;;;;;;;346.20;41.50;;;9.70;99.90;;;;;;5118719;27;20166;-68
2022/10/14 05:24:48;;;;;;;291.83;34.55;;;9.70;99.90;;;;;;5135788;27;20046;-68
2022/10/14 05:27:14;;;;;;;233.05;31.67;;;9.80;99.90;;;;;;5135707;27;20039;-68
2022/10/14 05:29:40;;;;;;;338.63;37.92;;;9.70;99.90;;;;;;5114942;27;20055;-68
2022/10/14 05:32:07;;;;;;;285.27;34.63;;;9.70;99.90;;;;;;5132443;27;20055;-68
2022/10/14 05:34:34;;;;;;;348.02;37.78;;;9.70;99.90;;;;;;5132317;27;20039;-69
2022/10/14 05:37:00;;;;;;;315.00;35.08;;;9.80;99.90;;;;;;5115173;27;20142;-68
2022/10/14 05:39:26;;;;;;;279.48;33.80;;;9.80;99.90;;;;;;5133179;27;20507;-68
2022/10/14 05:41:51;;;;;;;302.50;36.22;;;9.80;99.90;;;;;;5115196;27;20121;-68
2022/10/14 05:44:17;;;;;;;247.95;32.03;;;9.80;99.90;;;;;;5114815;27;20047;-68
2022/10/14 05:46:43;;;;;;;288.10;33.92;;;9.80;99.90;;;;;;5133022;27;20038;-68
2022/10/14 05:49:10;;;;;;;302.42;36.25;;;9.80;99.90;;;;;;5095667;27;20105;-67
2022/10/14 05:51:36;;;;;;;335.77;37.13;;;9.90;99.90;;;;;;5114704;27;20495;-67
2022/10/14 05:54:02;;;;;;;296.90;36.15;;;9.90;99.90;;;;;;5114648;27;20043;-67
2022/10/14 05:56:28;;;;;;;262.40;32.33;;;9.90;99.90;;;;;;5115060;27;20050;-68
2022/10/14 05:58:54;;;;;;;362.05;40.65;;;9.90;99.90;;;;;;5114579;27;20039;-69
2022/10/14 06:01:19;;;;;;;338.05;40.88;;;9.90;99.90;;;;;;5114564;27;20046;-68
2022/10/14 06:03:49;;;;;;;322.52;39.65;;;9.90;99.90;;;;;;5114794;28;20043;-67
2022/10/14 06:06:15;;;;;;;272.10;38.15;;;10.00;99.90;;;;;;5114857;27;20388;-67
2022/10/14 06:08:41;;;;;;;308.67;38.03;;;10.00;99.90;;;;;;5132903;27;20503;-67
2022/10/14 06:11:07;;;;;;;307.85;39.78;;;10.00;99.90;;;;;;5114460;27;20075;-68
2022/10/14 06:13:34;;;;;;;372.00;43.30;;;10.00;99.90;;;;;;5091246;27;20063;-68
2022/10/14 06:16:07;;;;;;;251.90;35.67;;;10.00;99.90;;;;;;5114327;28;20092;-68
2022/10/14 06:18:34;;;;;;;295.13;38.08;;;10.00;99.90;;;;;;5094968;28;20538;-67
2022/10/14 06:21:00;;;;;;;322.27;40.97;;;10.00;99.90;;;;;;5114382;28;20513;-68
2022/10/14 06:23:26;;;;;;;399.08;45.30;;;10.00;99.90;;;;;;5114404;28;20039;-68
2022/10/14 06:25:52;;;;;;;402.50;47.95;;;10.10;99.90;;;;;;5098510;28;20091;-69
2022/10/14 06:28:18;;;;;;;348.80;41.80;;;10.10;99.90;;;;;;5133040;28;20047;-69
2022/10/14 06:30:51;;;;;;;386.05;47.60;;;10.10;99.90;;;;;;5114117;28;20407;-69
2022/10/14 06:33:18;;;;;;;331.45;40.28;;;10.10;99.90;;;;;;5114318;28;20047;-69
2022/10/14 06:35:43;;;;;;;339.55;44.67;;;10.10;99.90;;;;;;5114225;28;20039;-70
2022/10/14 06:38:09;;;;;;;340.90;43.67;;;10.20;99.90;;;;;;5132734;28;20031;-69
2022/10/14 06:40:36;;;;;;;253.75;38.88;;;10.20;99.90;;;;;;5097539;28;20494;-69
2022/10/14 06:43:02;;;;;;;265.45;37.55;;;10.20;99.90;;;;;;5114220;28;20039;-68
2022/10/14 06:45:27;;;;;;;256.85;35.65;;;10.20;99.90;;;;;;5114121;28;20047;-69
2022/10/14 06:47:53;;;;;;;333.17;44.17;;;10.20;99.90;;;;;;5112157;28;20069;-69
2022/10/14 06:50:20;;;;;;;320.60;44.03;;;10.20;99.90;;;;;;5114218;28;20100;-69
2022/10/14 06:52:46;;;;;;;352.58;45.05;;;10.30;99.90;;;;;;5114423;28;20463;-69
2022/10/14 06:55:13;;;;;;;264.80;38.75;;;10.30;99.90;;;;;;5114148;28;20057;-69
2022/10/14 06:57:40;;;;;;;249.75;41.05;;;10.30;99.90;;;;;;5133413;27;20035;-67
2022/10/14 07:00:07;;;;;;;282.60;42.10;;;10.30;99.90;;;;;;5118374;27;20039;-67
2022/10/14 07:02:36;;;;;;;280.58;42.85;;;10.30;99.90;;;;;;5118811;27;20043;-68
2022/10/14 07:05:03;;;;;;;212.55;34.40;;;10.40;99.90;;;;;;5102180;27;20035;-67
2022/10/14 07:07:30;;;;;;;264.92;41.67;;;10.40;99.90;;;;;;5137062;27;20050;-66
2022/10/14 07:09:57;;;;;;;220.63;39.08;;;10.40;99.90;;;;;;5136944;27;20068;-67
2022/10/14 07:12:23;;;;;;;289.45;44.53;;;10.40;99.90;;;;;;5118373;27;20047;-67
2022/10/14 07:14:49;;;;;;;273.13;44.63;;;10.40;99.90;;;;;;5137135;27;20031;-67
2022/10/14 07:17:15;;;;;;;250.57;38.83;;;10.40;99.90;;;;;;5110941;27;20390;-67
2022/10/14 07:19:41;;;;;;;265.30;42.17;;;10.40;99.90;;;;;;5116096;27;20430;-67
2022/10/14 07:22:07;;;;;;;181.95;35.08;;;10.50;99.90;;;;;;5118573;27;20039;-67
2022/10/14 07:24:32;;;;;;;178.50;35.28;;;10.50;99.90;;;;;;5118290;27;20428;-67
2022/10/14 07:26:58;;;;;;;166.85;34.78;;;10.50;99.90;;;;;;5136803;27;20506;-66
2022/10/14 07:29:24;;;;;;;136.90;29.52;;;10.50;99.90;;;;;;5118392;27;20062;-66
2022/10/14 07:31:50;;;;;;;129.10;29.63;;;10.50;99.90;;;;;;5118264;27;20475;-67
2022/10/14 07:34:16;;;;;;;192.85;36.80;;;10.60;99.90;;;;;;5118064;27;20058;-68
2022/10/14 07:36:42;;;;;;;178.27;33.03;;;10.60;99.90;;;;;;5117967;27;20042;-67
2022/10/14 07:39:07;;;;;;;218.93;39.33;;;10.60;99.90;;;;;;5118429;27;20042;-68
2022/10/14 07:41:33;;;;;;;160.65;33.45;;;10.70;99.90;;;;;;5118016;27;20122;-67
2022/10/14 07:44:05;;;;;;;162.73;32.97;;;10.70;99.90;;;;;;5118026;27;20085;-68
2022/10/14 07:46:32;;;;;;;178.18;35.25;;;10.70;99.90;;;;;;5118113;27;20059;-67
2022/10/14 07:49:01;;;;;;;222.25;40.15;;;10.80;99.90;;;;;;5133830;27;20047;-67
2022/10/14 07:51:27;;;;;;;214.20;39.35;;;10.80;99.90;;;;;;5117020;27;20495;-67
2022/10/14 07:53:54;;;;;;;188.60;36.65;;;10.80;99.90;;;;;;5136028;27;20391;-67
2022/10/14 07:56:21;;;;;;;244.65;42.17;;;10.80;99.90;;;;;;5119968;27;20530;-67
2022/10/14 07:58:47;;;;;;;179.57;35.78;;;10.80;99.90;;;;;;5117467;27;20085;-68
2022/10/14 08:01:14;;;;;;;163.60;36.55;;;10.90;99.90;;;;;;5136088;27;20084;-69
2022/10/14 08:03:42;;;;;;;197.15;40.88;;;10.90;99.90;;;;;;5136177;27;20522;-68
2022/10/14 08:06:08;;;;;;;147.77;36.33;;;10.90;99.90;;;;;;5117924;27;20045;-68
2022/10/14 08:08:34;;;;;;;164.15;35.95;;;10.90;99.90;;;;;;5100750;27;20050;-68
2022/10/14 08:11:05;;;;;;;152.82;37.50;;;11.00;99.90;;;;;;5117863;27;20091;-68
2022/10/14 08:13:32;;;;;;;139.90;34.90;;;11.00;99.90;;;;;;5118909;27;20102;-69
2022/10/14 08:15:58;;;;;;;173.48;38.70;;;11.00;99.90;;;;;;5118886;27;20043;-68
2022/10/14 08:18:25;;;;;;;206.30;41.33;;;11.10;99.90;;;;;;5115389;27;20493;-68
2022/10/14 08:20:51;;;;;;;132.13;34.25;;;11.10;99.90;;;;;;5117611;27;20050;-69
2022/10/14 08:23:16;;;;;;;136.07;34.70;;;11.20;99.90;;;;;;5117338;27;20043;-68
2022/10/14 08:25:43;;;;;;;150.23;36.00;;;11.30;99.90;;;;;;5117022;27;20089;-68
2022/10/14 08:28:09;;;;;;;133.30;34.63;;;11.30;99.90;;;;;;5117447;27;20402;-68
2022/10/14 08:30:35;;;;;;;158.63;37.25;;;11.30;99.90;;;;;;5135498;27;20063;-68
2022/10/14 08:33:01;;;;;;;135.43;34.25;;;11.30;99.90;;;;;;5117151;27;20099;-68
2022/10/14 08:35:26;;;;;;;159.68;36.92;;;11.40;99.90;;;;;;5117076;27;20039;-68
2022/10/14 08:37:58;;;;;;;118.53;34.05;;;11.40;99.90;;;;;;5117227;27;20129;-69
2022/10/14 08:40:27;;;;;;;119.43;34.55;;;11.40;99.90;;;;;;5117230;27;20088;-68
2022/10/14 08:43:07;;;;;;;122.03;34.78;;;11.50;99.90;;;;;;5135410;27;20035;-68
2022/10/14 08:45:36;;;;;;;129.45;36.05;;;11.50;99.90;;;;;;5099839;27;20043;-67
2022/10/14 08:48:13;;;;;;;147.75;37.47;;;11.50;99.90;;;;;;5114907;27;20372;-67
2022/10/14 08:50:43;;;;;;;125.80;35.13;;;11.50;99.90;;;;;;5134853;27;20076;-66
2022/10/14 08:53:17;;;;;;;94.60;30.02;;;11.60;99.90;;;;;;5135300;27;20050;-66
2022/10/14 08:55:50;;;;;;;105.38;30.77;;;11.60;99.90;;;;;;5116701;27;20096;-66
2022/10/14 08:58:25;;;;;;;106.95;29.98;;;11.60;99.90;;;;;;5116870;27;20095;-65
2022/10/14 09:00:52;;;;;;;111.93;29.95;;;11.60;99.90;;;;;;5134933;27;20043;-67
2022/10/14 09:03:32;;;;;;;122.13;30.77;;;11.70;99.90;;;;;;5099276;27;20043;-66
2022/10/14 09:06:28;;;;;;;94.00;28.27;;;11.70;99.90;;;;;;5134738;27;20046;-67
2022/10/14 09:09:02;;;;;;;78.20;24.75;;;11.80;99.90;;;;;;5106196;27;20055;-68
2022/10/14 09:11:36;;;;;;;72.85;24.95;;;11.80;99.90;;;;;;5116213;27;20042;-67
2022/10/14 09:14:02;;;;;;;74.43;24.33;;;11.80;99.90;;;;;;5134895;27;20099;-66
2022/10/14 09:16:35;;;;;;;72.00;23.77;;;11.80;99.90;;;;;;5099224;27;20089;-66
2022/10/14 09:19:03;;;;;;;74.85;24.10;;;11.80;99.90;;;;;;5096885;27;20035;-66
2022/10/14 09:21:38;;;;;;;65.25;21.90;;;11.90;99.90;;;;;;5115672;27;20570;-66
2022/10/14 09:24:19;;;;;;;55.25;20.20;;;11.90;99.90;;;;;;5134550;27;20095;-66
2022/10/14 09:26:49;;;;;;;62.67;21.05;;;11.90;99.90;;;;;;5116196;27;20117;-66
2022/10/14 09:29:31;;;;;;;54.22;19.38;;;11.90;99.90;;;;;;5134266;27;20523;-66
2022/10/14 09:32:02;;;;;;;56.15;18.80;;;11.90;99.90;;;;;;5134039;27;20038;-66
2022/10/14 09:34:35;;;;;;;56.13;19.42;;;11.90;99.90;;;;;;5115651;27;20126;-66
2022/10/14 09:37:30;;;;;;;42.88;15.75;;;12.00;99.90;;;;;;5134164;27;20039;-66
2022/10/14 09:40:01;;;;;;;47.00;16.23;;;12.00;99.90;;;;;;5094483;27;20528;-67
2022/10/14 09:42:46;;;;;;;50.83;17.30;;;12.00;99.90;;;;;;5116039;27;20503;-67
2022/10/14 09:45:15;;;;;;;44.53;15.90;;;12.10;99.90;;;;;;5115674;27;20047;-67
2022/10/14 09:48:08;;;;;;;43.20;15.50;;;12.10;99.90;;;;;;5113997;27;20414;-67
2022/10/14 09:50:47;;;;;;;34.78;14.45;;;12.10;99.90;;;;;;5115449;27;20055;-67
2022/10/14 09:53:29;;;;;;;38.72;14.82;;;12.20;99.90;;;;;;5130935;27;20053;-67
2022/10/14 09:56:00;;;;;;;40.55;14.88;;;12.20;99.90;;;;;;5115303;27;20145;-67
2022/10/14 09:58:28;;;;;;;;;;;12.20;99.90;;;;;;5134582;27;20152;-66
2022/10/14 10:00:59;;;;;;;42.00;15.02;;;12.20;99.90;;;;;;5115618;27;20435;-67
2022/10/14 10:03:34;;;;;;;43.63;15.88;;;12.20;99.90;;;;;;5115350;28;20483;-66
2022/10/14 10:06:05;;;;;;;45.85;15.80;;;12.30;99.90;;;;;;5133917;27;20050;-66
2022/10/14 10:08:32;;;;;;;40.95;14.82;;;12.30;99.90;;;;;;5115237;27;20035;-66
2022/10/14 10:11:01;;;;;;;38.30;14.55;;;12.30;99.90;;;;;;5133570;27;20479;-67
2022/10/14 10:13:40;;;;;;;32.83;13.50;;;12.40;99.90;;;;;;5098685;27;20096;-66
2022/10/14 10:16:17;;;;;;;37.33;13.68;;;12.40;99.90;;;;;;5115151;27;20055;-67
2022/10/14 10:18:43;;;;;;;33.05;13.48;;;12.40;99.90;;;;;;5130543;28;20448;-68
2022/10/14 10:21:19;;;;;;;26.55;11.23;;;12.50;99.90;;;;;;5117609;27;20062;-68
2022/10/14 10:23:55;;;;;;;22.92;10.32;;;12.50;99.90;;;;;;5123647;28;20391;-67
2022/10/14 10:26:33;;;;;;;21.35;10.55;;;12.50;99.90;;;;;;5113322;28;20118;-66
2022/10/14 10:29:02;;;;;;;32.15;11.75;;;12.50;99.90;;;;;;5105580;28;20047;-67
2022/10/14 10:32:01;;;;;;;26.20;11.18;;;12.50;99.90;;;;;;5132591;27;20083;-67
2022/10/14 10:34:48;;;;;;;32.40;11.38;;;12.50;99.90;;;;;;5101714;27;20402;-67
2022/10/14 10:37:25;;;;;;;24.63;10.45;;;12.50;99.90;;;;;;5118410;27;20149;-66
2022/10/14 10:40:23;;;;;;;28.45;10.82;;;12.50;99.90;;;;;;5101087;27;20038;-66
2022/10/14 10:43:15;;;;;;;22.77;9.25;;;12.50;99.90;;;;;;5118133;27;20046;-66
2022/10/14 10:46:03;;;;;;;26.90;9.80;;;12.50;99.90;;;;;;5118359;27;20050;-66
2022/10/14 10:48:54;;;;;;;22.48;8.93;;;12.60;99.90;;;;;;5133907;27;20054;-66
2022/10/14 10:51:52;;;;;;;17.83;8.75;;;12.60;99.90;;;;;;5115387;27;20055;-66
2022/10/14 10:54:55;;;;;;;24.20;10.40;;;12.70;99.90;;;;;;5117843;27;20050;-66
2022/10/14 10:57:53;;;;;;;24.23;10.20;;;12.80;99.90;;;;;;5117834;27;20035;-66
2022/10/14 11:00:22;;;;;;;21.00;8.68;;;12.80;99.90;;;;;;5096992;27;20126;-65
2022/10/14 11:03:18;;;;;;;22.23;8.88;;;12.80;99.90;;;;;;5118407;27;20038;-66
2022/10/14 11:05:59;;;;;;;21.52;9.18;;;12.90;99.90;;;;;;5113157;27;20047;-67
2022/10/14 11:12:05;;;;;;;21.00;9.07;;;12.90;99.90;;;;;;5136523;27;20047;-66
2022/10/14 11:14:53;;;;;;;20.98;9.48;;;12.90;99.90;;;;;;5136291;27;20422;-66
2022/10/14 11:17:46;;;;;;;21.88;9.13;;;12.90;99.90;;;;;;5118306;27;20176;-67
2022/10/14 11:20:21;;;;;;;19.80;9.55;;;12.90;99.90;;;;;;5115134;27;20055;-66
2022/10/14 11:23:12;;;;;;;25.58;10.35;;;13.00;99.90;;;;;;5116028;27;20046;-67
2022/10/14 11:26:02;;;;;;;19.85;9.55;;;13.00;99.90;;;;;;5117912;27;20083;-66
2022/10/14 11:28:54;;;;;;;21.45;9.02;;;13.00;99.90;;;;;;5126841;27;20047;-67
2022/10/14 11:31:41;;;;;;;22.38;9.05;;;13.00;99.90;;;;;;5116841;28;20482;-67
2022/10/14 11:34:23;;;;;;;27.65;10.88;;;13.10;99.90;;;;;;5116669;27;20070;-67
2022/10/14 11:37:17;;;;;;;26.02;9.95;;;13.10;99.90;;;;;;5111091;28;20047;-67
2022/10/14 11:40:29;;;;;;;22.52;9.18;;;13.10;99.90;;;;;;5099929;28;20161;-66
2022/10/14 11:42:55;;;;;;;27.23;9.80;;;13.10;99.90;;;;;;5132419;27;20502;-66
2022/10/14 11:45:58;;;;;;;20.10;9.50;;;13.20;99.90;;;;;;5115605;27;20081;-66
2022/10/14 11:48:40;;;;;;;25.25;9.50;;;13.20;99.90;;;;;;5131319;27;20039;-66
2022/10/14 11:51:12;;;;;;;23.75;9.52;;;13.20;99.90;;;;;;5115574;28;20050;-66
2022/10/14 11:53:48;;;;;;;21.17;10.38;;;13.20;99.90;;;;;;5115395;27;20517;-66
2022/10/14 11:56:40;;;;;;;24.02;10.32;;;13.30;99.90;;;;;;5115416;28;20050;-66
2022/10/14 11:59:36;;;;;;;25.98;10.18;;;13.30;99.90;;;;;;5125136;28;20047;-66
2022/10/14 12:02:20;;;;;;;29.35;11.45;;;13.30;99.90;;;;;;5115455;28;20039;-66
2022/10/14 12:04:54;;;;;;;28.98;11.65;;;13.40;99.90;;;;;;5105463;28;20055;-67
2022/10/14 12:07:30;;;;;;;26.35;11.15;;;13.40;99.90;;;;;;5115361;28;20046;-66
2022/10/14 12:10:04;;;;;;;30.83;12.65;;;13.40;99.90;;;;;;5115688;28;20509;-66
2022/10/14 12:12:33;;;;;;;29.65;11.70;;;13.50;99.90;;;;;;5116092;28;20046;-67
2022/10/14 12:15:04;;;;;;;41.40;14.73;;;13.50;99.90;;;;;;5116078;28;20077;-66
2022/10/14 12:17:41;;;;;;;32.65;13.50;;;13.60;99.90;;;;;;5125352;28;20497;-66
2022/10/14 12:20:22;;;;;;;31.90;13.40;;;13.60;99.90;;;;;;5133053;28;20031;-66
2022/10/14 12:22:50;;;;;;;34.83;14.60;;;13.60;99.90;;;;;;5101132;28;20190;-66
2022/10/14 12:25:19;;;;;;;37.10;15.15;;;13.60;99.90;;;;;;5094469;28;20051;-66
2022/10/14 12:27:48;;;;;;;41.00;15.73;;;13.60;99.90;;;;;;5112693;28;20051;-67
2022/10/14 12:30:47;;;;;;;42.10;15.17;;;13.70;99.90;;;;;;5026717;27;1527439;-66
2022/10/14 12:33:16;;;;;;;43.83;16.35;;;13.70;99.90;;;;;;5069157;27;20121;-67
2022/10/14 12:35:46;;;;;;;39.17;15.23;;;13.80;99.90;;;;;;5116673;27;20035;-67
2022/10/14 12:38:13;;;;;;;40.95;16.60;;;13.80;99.90;;;;;;5134225;27;20108;-66
2022/10/14 12:40:39;;;;;;;33.38;15.23;;;13.80;99.90;;;;;;5115444;27;20258;-66
2022/10/14 12:43:22;;;;;;;45.53;17.35;;;13.90;99.90;;;;;;5115557;27;20538;-66
2022/10/14 12:46:09;;;;;;;37.63;15.38;;;14.00;99.90;;;;;;5134883;27;20114;-67
2022/10/14 12:48:49;;;;;;;43.88;16.63;;;14.00;99.90;;;;;;5113937;27;20528;-66